sensor_id;sensor_type;location;lat;lon;timestamp;P1;durP1;ratioP1;P2;durP2;ratioP2
75048;SDS011;63803;53.120;8.764;2023-01-10T00:00:36;3.60;;;1.42;;
75048;SDS011;63803;53.120;8.764;2023-01-10T00:03:03;3.60;;;1.38;;
75048;SDS011;63803;53.120;8.764;2023-01-10T00:05:30;7.70;;;1.45;;
75048;SDS011;63803;53.120;8.764;2023-01-10T00:07:56;2.78;;;1.23;;
75048;SDS011;63803;53.120;8.764;2023-01-10T00:10:23;3.03;;;1.30;;
75048;SDS011;63803;53.120;8.764;2023-01-10T00:12:49;4.43;;;1.30;;
75048;SDS011;63803;53.120;8.764;2023-01-10T00:15:34;3.58;;;1.40;;
75048;SDS011;63803;53.120;8.764;2023-01-10T00:18:01;2.72;;;1.33;;
75048;SDS011;63803;53.120;8.764;2023-01-10T00:20:27;3.50;;;1.30;;
75048;SDS011;63803;53.120;8.764;2023-01-10T00:22:53;4.47;;;1.40;;
75048;SDS011;63803;53.120;8.764;2023-01-10T00:25:20;3.47;;;1.20;;
75048;SDS011;63803;53.120;8.764;2023-01-10T00:27:47;3.67;;;1.58;;
75048;SDS011;63803;53.120;8.764;2023-01-10T00:30:38;7.18;;;1.23;;
75048;SDS011;63803;53.120;8.764;2023-01-10T00:33:04;2.13;;;1.30;;
75048;SDS011;63803;53.120;8.764;2023-01-10T00:35:31;6.45;;;1.50;;
75048;SDS011;63803;53.120;8.764;2023-01-10T00:37:57;8.52;;;1.65;;
75048;SDS011;63803;53.120;8.764;2023-01-10T00:40:26;12.75;;;1.75;;
75048;SDS011;63803;53.120;8.764;2023-01-10T00:42:52;5.47;;;1.67;;
75048;SDS011;63803;53.120;8.764;2023-01-10T00:45:36;10.85;;;1.30;;
75048;SDS011;63803;53.120;8.764;2023-01-10T00:48:02;14.32;;;2.13;;
75048;SDS011;63803;53.120;8.764;2023-01-10T00:50:28;8.38;;;1.75;;
75048;SDS011;63803;53.120;8.764;2023-01-10T00:52:55;6.63;;;1.70;;
75048;SDS011;63803;53.120;8.764;2023-01-10T00:55:21;5.35;;;1.60;;
75048;SDS011;63803;53.120;8.764;2023-01-10T00:57:47;6.55;;;1.67;;
75048;SDS011;63803;53.120;8.764;2023-01-10T01:00:13;7.13;;;1.58;;
75048;SDS011;63803;53.120;8.764;2023-01-10T01:02:39;14.75;;;1.50;;
75048;SDS011;63803;53.120;8.764;2023-01-10T01:05:05;20.30;;;1.77;;
75048;SDS011;63803;53.120;8.764;2023-01-10T01:07:31;2.95;;;1.10;;
75048;SDS011;63803;53.120;8.764;2023-01-10T01:09:58;2.15;;;1.10;;
75048;SDS011;63803;53.120;8.764;2023-01-10T01:12:42;9.20;;;1.50;;
75048;SDS011;63803;53.120;8.764;2023-01-10T01:15:08;9.93;;;1.70;;
75048;SDS011;63803;53.120;8.764;2023-01-10T01:17:34;8.25;;;1.45;;
75048;SDS011;63803;53.120;8.764;2023-01-10T01:20:00;3.92;;;1.10;;
75048;SDS011;63803;53.120;8.764;2023-01-10T01:22:26;11.50;;;1.30;;
75048;SDS011;63803;53.120;8.764;2023-01-10T01:24:52;6.18;;;1.30;;
75048;SDS011;63803;53.120;8.764;2023-01-10T01:27:18;5.22;;;1.20;;
75048;SDS011;63803;53.120;8.764;2023-01-10T01:29:45;2.22;;;1.23;;
75048;SDS011;63803;53.120;8.764;2023-01-10T01:32:11;4.13;;;1.30;;
75048;SDS011;63803;53.120;8.764;2023-01-10T01:34:37;17.08;;;1.33;;
75048;SDS011;63803;53.120;8.764;2023-01-10T01:37:03;9.70;;;1.40;;
75048;SDS011;63803;53.120;8.764;2023-01-10T01:39:29;6.50;;;1.38;;
75048;SDS011;63803;53.120;8.764;2023-01-10T01:41:55;10.07;;;1.55;;
75048;SDS011;63803;53.120;8.764;2023-01-10T01:44:21;9.43;;;1.40;;
75048;SDS011;63803;53.120;8.764;2023-01-10T01:46:51;3.70;;;1.00;;
75048;SDS011;63803;53.120;8.764;2023-01-10T01:49:30;6.47;;;1.40;;
75048;SDS011;63803;53.120;8.764;2023-01-10T01:51:58;7.25;;;1.48;;
75048;SDS011;63803;53.120;8.764;2023-01-10T01:54:29;8.07;;;1.42;;
75048;SDS011;63803;53.120;8.764;2023-01-10T01:56:58;8.52;;;1.58;;
75048;SDS011;63803;53.120;8.764;2023-01-10T01:59:34;4.32;;;1.10;;
75048;SDS011;63803;53.120;8.764;2023-01-10T02:02:05;4.72;;;1.38;;
75048;SDS011;63803;53.120;8.764;2023-01-10T02:04:40;2.80;;;0.93;;
75048;SDS011;63803;53.120;8.764;2023-01-10T02:07:11;3.92;;;1.10;;
75048;SDS011;63803;53.120;8.764;2023-01-10T02:09:40;4.90;;;1.38;;
75048;SDS011;63803;53.120;8.764;2023-01-10T02:12:19;4.53;;;1.10;;
75048;SDS011;63803;53.120;8.764;2023-01-10T02:14:46;5.95;;;1.10;;
75048;SDS011;63803;53.120;8.764;2023-01-10T02:17:14;5.97;;;1.30;;
75048;SDS011;63803;53.120;8.764;2023-01-10T02:27:42;2.83;;;1.20;;
75048;SDS011;63803;53.120;8.764;2023-01-10T02:33:04;2.10;;;1.00;;
75048;SDS011;63803;53.120;8.764;2023-01-10T02:46:21;3.88;;;1.20;;
75048;SDS011;63803;53.120;8.764;2023-01-10T02:48:53;2.53;;;1.27;;
75048;SDS011;63803;53.120;8.764;2023-01-10T02:51:20;6.70;;;1.08;;
75048;SDS011;63803;53.120;8.764;2023-01-10T03:07:17;15.13;;;1.37;;
75048;SDS011;63803;53.120;8.764;2023-01-10T03:12:48;3.42;;;0.95;;
75048;SDS011;63803;53.120;8.764;2023-01-10T03:15:21;2.47;;;0.90;;
75048;SDS011;63803;53.120;8.764;2023-01-10T03:17:53;5.15;;;1.00;;
75048;SDS011;63803;53.120;8.764;2023-01-10T03:20:23;3.75;;;1.02;;
75048;SDS011;63803;53.120;8.764;2023-01-10T03:22:51;2.50;;;1.02;;
75048;SDS011;63803;53.120;8.764;2023-01-10T03:25:20;5.38;;;1.98;;
75048;SDS011;63803;53.120;8.764;2023-01-10T03:27:57;2.22;;;0.80;;
75048;SDS011;63803;53.120;8.764;2023-01-10T03:33:27;3.15;;;0.80;;
75048;SDS011;63803;53.120;8.764;2023-01-10T03:41:14;2.60;;;0.93;;
75048;SDS011;63803;53.120;8.764;2023-01-10T03:46:41;3.13;;;0.95;;
75048;SDS011;63803;53.120;8.764;2023-01-10T03:49:27;3.47;;;1.27;;
75048;SDS011;63803;53.120;8.764;2023-01-10T03:51:55;2.03;;;1.02;;
75048;SDS011;63803;53.120;8.764;2023-01-10T03:54:26;3.72;;;1.10;;
75048;SDS011;63803;53.120;8.764;2023-01-10T03:56:52;1.83;;;0.90;;
75048;SDS011;63803;53.120;8.764;2023-01-10T03:59:23;1.48;;;0.80;;
75048;SDS011;63803;53.120;8.764;2023-01-10T04:01:51;4.95;;;0.98;;
75048;SDS011;63803;53.120;8.764;2023-01-10T04:04:17;3.65;;;1.15;;
75048;SDS011;63803;53.120;8.764;2023-01-10T04:06:43;4.28;;;1.08;;
75048;SDS011;63803;53.120;8.764;2023-01-10T04:09:10;2.35;;;0.80;;
75048;SDS011;63803;53.120;8.764;2023-01-10T04:11:36;3.05;;;0.93;;
75048;SDS011;63803;53.120;8.764;2023-01-10T04:14:02;5.95;;;1.23;;
75048;SDS011;63803;53.120;8.764;2023-01-10T04:16:29;8.68;;;1.52;;
75048;SDS011;63803;53.120;8.764;2023-01-10T04:18:55;5.95;;;1.23;;
75048;SDS011;63803;53.120;8.764;2023-01-10T04:21:21;6.28;;;1.40;;
75048;SDS011;63803;53.120;8.764;2023-01-10T04:23:47;7.68;;;1.67;;
75048;SDS011;63803;53.120;8.764;2023-01-10T04:26:13;9.52;;;1.20;;
75048;SDS011;63803;53.120;8.764;2023-01-10T04:28:39;12.10;;;1.77;;
75048;SDS011;63803;53.120;8.764;2023-01-10T04:31:05;6.72;;;1.85;;
75048;SDS011;63803;53.120;8.764;2023-01-10T04:33:31;7.28;;;1.73;;
75048;SDS011;63803;53.120;8.764;2023-01-10T04:35:57;5.68;;;1.70;;
75048;SDS011;63803;53.120;8.764;2023-01-10T04:38:24;7.50;;;1.92;;
75048;SDS011;63803;53.120;8.764;2023-01-10T04:40:53;12.15;;;1.45;;
75048;SDS011;63803;53.120;8.764;2023-01-10T04:45:47;16.83;;;2.08;;
75048;SDS011;63803;53.120;8.764;2023-01-10T04:48:13;8.82;;;1.40;;
75048;SDS011;63803;53.120;8.764;2023-01-10T04:50:40;12.50;;;1.55;;
75048;SDS011;63803;53.120;8.764;2023-01-10T04:53:06;6.35;;;1.13;;
75048;SDS011;63803;53.120;8.764;2023-01-10T04:55:32;8.45;;;1.48;;
75048;SDS011;63803;53.120;8.764;2023-01-10T04:58:00;8.32;;;1.50;;
75048;SDS011;63803;53.120;8.764;2023-01-10T05:00:27;6.70;;;1.55;;
75048;SDS011;63803;53.120;8.764;2023-01-10T05:02:56;6.90;;;1.60;;
75048;SDS011;63803;53.120;8.764;2023-01-10T05:05:22;7.00;;;1.50;;
75048;SDS011;63803;53.120;8.764;2023-01-10T05:07:49;11.32;;;1.65;;
75048;SDS011;63803;53.120;8.764;2023-01-10T05:10:15;5.45;;;1.48;;
75048;SDS011;63803;53.120;8.764;2023-01-10T05:12:41;9.30;;;1.63;;
75048;SDS011;63803;53.120;8.764;2023-01-10T05:15:07;6.15;;;1.40;;
75048;SDS011;63803;53.120;8.764;2023-01-10T05:17:34;5.65;;;1.23;;
75048;SDS011;63803;53.120;8.764;2023-01-10T05:20:00;5.40;;;1.33;;
75048;SDS011;63803;53.120;8.764;2023-01-10T05:22:26;3.53;;;1.52;;
75048;SDS011;63803;53.120;8.764;2023-01-10T05:24:52;7.38;;;1.40;;
75048;SDS011;63803;53.120;8.764;2023-01-10T05:27:18;4.50;;;1.52;;
75048;SDS011;63803;53.120;8.764;2023-01-10T05:29:44;6.72;;;1.27;;
75048;SDS011;63803;53.120;8.764;2023-01-10T05:32:10;7.22;;;1.50;;
75048;SDS011;63803;53.120;8.764;2023-01-10T05:34:36;6.82;;;1.23;;
75048;SDS011;63803;53.120;8.764;2023-01-10T05:37:03;4.88;;;1.30;;
75048;SDS011;63803;53.120;8.764;2023-01-10T05:39:29;5.03;;;1.25;;
75048;SDS011;63803;53.120;8.764;2023-01-10T05:41:55;5.47;;;1.35;;
75048;SDS011;63803;53.120;8.764;2023-01-10T05:44:21;5.35;;;1.35;;
75048;SDS011;63803;53.120;8.764;2023-01-10T05:46:47;5.53;;;1.42;;
75048;SDS011;63803;53.120;8.764;2023-01-10T05:49:13;6.80;;;1.27;;
75048;SDS011;63803;53.120;8.764;2023-01-10T05:51:39;4.10;;;1.42;;
75048;SDS011;63803;53.120;8.764;2023-01-10T05:54:06;5.88;;;1.30;;
75048;SDS011;63803;53.120;8.764;2023-01-10T05:56:33;6.55;;;1.33;;
75048;SDS011;63803;53.120;8.764;2023-01-10T05:58:59;9.27;;;1.40;;
75048;SDS011;63803;53.120;8.764;2023-01-10T06:01:25;6.88;;;1.30;;
75048;SDS011;63803;53.120;8.764;2023-01-10T06:03:52;4.57;;;1.08;;
75048;SDS011;63803;53.120;8.764;2023-01-10T06:06:18;6.93;;;1.40;;
75048;SDS011;63803;53.120;8.764;2023-01-10T06:08:44;11.00;;;1.52;;
75048;SDS011;63803;53.120;8.764;2023-01-10T06:11:10;4.18;;;1.17;;
75048;SDS011;63803;53.120;8.764;2023-01-10T06:13:36;7.00;;;1.95;;
75048;SDS011;63803;53.120;8.764;2023-01-10T06:16:02;3.33;;;1.30;;
75048;SDS011;63803;53.120;8.764;2023-01-10T06:18:29;6.63;;;1.40;;
75048;SDS011;63803;53.120;8.764;2023-01-10T06:20:55;2.53;;;0.90;;
75048;SDS011;63803;53.120;8.764;2023-01-10T06:23:21;5.95;;;1.42;;
75048;SDS011;63803;53.120;8.764;2023-01-10T06:25:48;2.80;;;0.80;;
75048;SDS011;63803;53.120;8.764;2023-01-10T06:28:14;2.42;;;1.00;;
75048;SDS011;63803;53.120;8.764;2023-01-10T06:30:41;3.47;;;1.20;;
75048;SDS011;63803;53.120;8.764;2023-01-10T06:33:08;5.05;;;1.23;;
75048;SDS011;63803;53.120;8.764;2023-01-10T06:35:35;3.95;;;1.40;;
75048;SDS011;63803;53.120;8.764;2023-01-10T06:38:01;3.80;;;1.40;;
75048;SDS011;63803;53.120;8.764;2023-01-10T06:40:28;3.67;;;1.10;;
75048;SDS011;63803;53.120;8.764;2023-01-10T06:42:54;1.98;;;1.15;;
75048;SDS011;63803;53.120;8.764;2023-01-10T06:45:20;2.08;;;1.27;;
75048;SDS011;63803;53.120;8.764;2023-01-10T06:47:46;3.25;;;1.30;;
75048;SDS011;63803;53.120;8.764;2023-01-10T06:50:12;10.05;;;1.55;;
75048;SDS011;63803;53.120;8.764;2023-01-10T06:52:39;4.00;;;1.30;;
75048;SDS011;63803;53.120;8.764;2023-01-10T06:55:06;7.00;;;1.50;;
75048;SDS011;63803;53.120;8.764;2023-01-10T06:57:33;2.40;;;0.98;;
75048;SDS011;63803;53.120;8.764;2023-01-10T07:00:03;5.45;;;1.65;;
75048;SDS011;63803;53.120;8.764;2023-01-10T07:02:31;2.78;;;1.05;;
75048;SDS011;63803;53.120;8.764;2023-01-10T07:04:57;2.05;;;1.15;;
75048;SDS011;63803;53.120;8.764;2023-01-10T07:07:23;6.25;;;1.25;;
75048;SDS011;63803;53.120;8.764;2023-01-10T07:09:49;2.80;;;1.10;;
75048;SDS011;63803;53.120;8.764;2023-01-10T07:12:15;2.03;;;0.90;;
75048;SDS011;63803;53.120;8.764;2023-01-10T07:14:41;4.43;;;1.00;;
75048;SDS011;63803;53.120;8.764;2023-01-10T07:17:07;5.72;;;1.20;;
75048;SDS011;63803;53.120;8.764;2023-01-10T07:19:33;3.33;;;1.38;;
75048;SDS011;63803;53.120;8.764;2023-01-10T07:21:59;3.45;;;1.10;;
75048;SDS011;63803;53.120;8.764;2023-01-10T07:24:25;2.67;;;1.10;;
75048;SDS011;63803;53.120;8.764;2023-01-10T07:26:53;3.33;;;1.20;;
75048;SDS011;63803;53.120;8.764;2023-01-10T07:29:20;3.40;;;1.25;;
75048;SDS011;63803;53.120;8.764;2023-01-10T07:31:46;2.10;;;0.90;;
75048;SDS011;63803;53.120;8.764;2023-01-10T07:34:12;1.35;;;0.85;;
75048;SDS011;63803;53.120;8.764;2023-01-10T07:36:38;2.13;;;1.05;;
75048;SDS011;63803;53.120;8.764;2023-01-10T07:39:05;4.80;;;1.17;;
75048;SDS011;63803;53.120;8.764;2023-01-10T07:41:31;4.53;;;1.17;;
75048;SDS011;63803;53.120;8.764;2023-01-10T07:43:57;3.25;;;1.15;;
75048;SDS011;63803;53.120;8.764;2023-01-10T07:46:24;4.35;;;1.15;;
75048;SDS011;63803;53.120;8.764;2023-01-10T07:48:50;2.10;;;1.20;;
75048;SDS011;63803;53.120;8.764;2023-01-10T07:51:16;2.80;;;1.20;;
75048;SDS011;63803;53.120;8.764;2023-01-10T07:53:42;3.55;;;1.15;;
75048;SDS011;63803;53.120;8.764;2023-01-10T07:56:08;4.07;;;1.38;;
75048;SDS011;63803;53.120;8.764;2023-01-10T07:58:34;8.85;;;1.38;;
75048;SDS011;63803;53.120;8.764;2023-01-10T08:01:02;9.70;;;1.55;;
75048;SDS011;63803;53.120;8.764;2023-01-10T08:03:29;5.75;;;1.30;;
75048;SDS011;63803;53.120;8.764;2023-01-10T08:06:02;6.43;;;1.83;;
75048;SDS011;63803;53.120;8.764;2023-01-10T08:08:30;10.35;;;1.17;;
75048;SDS011;63803;53.120;8.764;2023-01-10T08:10:57;5.07;;;1.38;;
75048;SDS011;63803;53.120;8.764;2023-01-10T08:13:27;4.13;;;1.43;;
75048;SDS011;63803;53.120;8.764;2023-01-10T08:15:53;2.72;;;1.20;;
75048;SDS011;63803;53.120;8.764;2023-01-10T08:18:20;3.85;;;0.90;;
75048;SDS011;63803;53.120;8.764;2023-01-10T08:20:47;6.50;;;1.30;;
75048;SDS011;63803;53.120;8.764;2023-01-10T08:23:14;3.80;;;1.20;;
75048;SDS011;63803;53.120;8.764;2023-01-10T08:25:41;2.22;;;1.00;;
75048;SDS011;63803;53.120;8.764;2023-01-10T08:28:07;3.33;;;1.02;;
75048;SDS011;63803;53.120;8.764;2023-01-10T08:30:33;7.32;;;1.55;;
75048;SDS011;63803;53.120;8.764;2023-01-10T08:33:03;6.20;;;1.30;;
75048;SDS011;63803;53.120;8.764;2023-01-10T08:35:34;4.45;;;1.15;;
75048;SDS011;63803;53.120;8.764;2023-01-10T08:38:01;2.90;;;1.15;;
75048;SDS011;63803;53.120;8.764;2023-01-10T08:40:27;2.97;;;1.08;;
75048;SDS011;63803;53.120;8.764;2023-01-10T08:43:12;5.38;;;1.38;;
75048;SDS011;63803;53.120;8.764;2023-01-10T08:45:39;4.10;;;1.10;;
75048;SDS011;63803;53.120;8.764;2023-01-10T08:48:06;5.05;;;1.10;;
75048;SDS011;63803;53.120;8.764;2023-01-10T08:50:33;12.65;;;1.05;;
75048;SDS011;63803;53.120;8.764;2023-01-10T08:53:00;3.20;;;1.05;;
75048;SDS011;63803;53.120;8.764;2023-01-10T08:55:26;4.82;;;1.40;;
75048;SDS011;63803;53.120;8.764;2023-01-10T08:57:57;4.57;;;1.40;;
75048;SDS011;63803;53.120;8.764;2023-01-10T09:00:24;4.40;;;1.30;;
75048;SDS011;63803;53.120;8.764;2023-01-10T09:02:50;5.80;;;1.33;;
75048;SDS011;63803;53.120;8.764;2023-01-10T09:05:17;3.42;;;1.10;;
75048;SDS011;63803;53.120;8.764;2023-01-10T09:07:43;6.68;;;1.17;;
75048;SDS011;63803;53.120;8.764;2023-01-10T09:10:11;2.42;;;1.20;;
75048;SDS011;63803;53.120;8.764;2023-01-10T09:12:37;7.82;;;1.95;;
75048;SDS011;63803;53.120;8.764;2023-01-10T09:15:19;6.68;;;1.85;;
75048;SDS011;63803;53.120;8.764;2023-01-10T09:17:52;9.52;;;2.40;;
75048;SDS011;63803;53.120;8.764;2023-01-10T09:20:19;7.75;;;2.17;;
75048;SDS011;63803;53.120;8.764;2023-01-10T09:22:45;4.40;;;1.92;;
75048;SDS011;63803;53.120;8.764;2023-01-10T09:25:11;9.23;;;2.15;;
75048;SDS011;63803;53.120;8.764;2023-01-10T09:27:38;7.38;;;2.00;;
75048;SDS011;63803;53.120;8.764;2023-01-10T09:30:04;7.40;;;2.15;;
75048;SDS011;63803;53.120;8.764;2023-01-10T09:32:30;6.38;;;1.70;;
75048;SDS011;63803;53.120;8.764;2023-01-10T09:34:56;4.28;;;1.60;;
75048;SDS011;63803;53.120;8.764;2023-01-10T09:37:22;9.07;;;1.70;;
75048;SDS011;63803;53.120;8.764;2023-01-10T09:39:48;5.00;;;1.50;;
75048;SDS011;63803;53.120;8.764;2023-01-10T09:53:09;5.57;;;1.60;;
75048;SDS011;63803;53.120;8.764;2023-01-10T09:55:39;4.45;;;1.30;;
75048;SDS011;63803;53.120;8.764;2023-01-10T09:58:09;4.03;;;1.48;;
75048;SDS011;63803;53.120;8.764;2023-01-10T10:00:41;6.32;;;1.67;;
75048;SDS011;63803;53.120;8.764;2023-01-10T10:03:24;7.43;;;1.70;;
75048;SDS011;63803;53.120;8.764;2023-01-10T10:06:06;4.30;;;1.52;;
75048;SDS011;63803;53.120;8.764;2023-01-10T10:29:53;4.43;;;1.52;;
75048;SDS011;63803;53.120;8.764;2023-01-10T10:35:11;2.97;;;1.38;;
75048;SDS011;63803;53.120;8.764;2023-01-10T10:37:41;4.75;;;1.40;;
75048;SDS011;63803;53.120;8.764;2023-01-10T10:42:40;3.80;;;1.33;;
75048;SDS011;63803;53.120;8.764;2023-01-10T10:47:50;6.03;;;1.58;;
75048;SDS011;63803;53.120;8.764;2023-01-10T10:50:31;9.77;;;1.60;;
75048;SDS011;63803;53.120;8.764;2023-01-10T10:52:59;5.03;;;1.80;;
75048;SDS011;63803;53.120;8.764;2023-01-10T10:55:32;8.10;;;1.77;;
75048;SDS011;63803;53.120;8.764;2023-01-10T10:58:01;4.55;;;1.52;;
75048;SDS011;63803;53.120;8.764;2023-01-10T11:00:30;4.20;;;1.03;;
75048;SDS011;63803;53.120;8.764;2023-01-10T11:05:31;3.53;;;1.00;;
75048;SDS011;63803;53.120;8.764;2023-01-10T11:08:04;7.13;;;1.67;;
75048;SDS011;63803;53.120;8.764;2023-01-10T11:10:34;5.03;;;1.33;;
75048;SDS011;63803;53.120;8.764;2023-01-10T11:13:03;4.97;;;1.60;;
75048;SDS011;63803;53.120;8.764;2023-01-10T11:15:43;3.10;;;1.40;;
75048;SDS011;63803;53.120;8.764;2023-01-10T11:18:15;6.18;;;1.73;;
75048;SDS011;63803;53.120;8.764;2023-01-10T11:20:46;3.67;;;1.25;;
75048;SDS011;63803;53.120;8.764;2023-01-10T11:23:22;4.47;;;1.20;;
75048;SDS011;63803;53.120;8.764;2023-01-10T11:25:57;4.93;;;1.60;;
75048;SDS011;63803;53.120;8.764;2023-01-10T11:28:25;3.95;;;1.35;;
75048;SDS011;63803;53.120;8.764;2023-01-10T11:30:54;3.67;;;1.48;;
75048;SDS011;63803;53.120;8.764;2023-01-10T11:33:22;6.15;;;1.38;;
75048;SDS011;63803;53.120;8.764;2023-01-10T11:35:56;5.47;;;1.60;;
75048;SDS011;63803;53.120;8.764;2023-01-10T11:38:30;3.03;;;1.27;;
75048;SDS011;63803;53.120;8.764;2023-01-10T11:46:17;3.17;;;1.27;;
75048;SDS011;63803;53.120;8.764;2023-01-10T11:48:52;5.03;;;1.60;;
75048;SDS011;63803;53.120;8.764;2023-01-10T11:51:25;6.43;;;1.38;;
75048;SDS011;63803;53.120;8.764;2023-01-10T11:53:57;4.15;;;1.60;;
75048;SDS011;63803;53.120;8.764;2023-01-10T11:56:33;6.63;;;1.58;;
75048;SDS011;63803;53.120;8.764;2023-01-10T11:59:13;3.88;;;1.50;;
75048;SDS011;63803;53.120;8.764;2023-01-10T12:01:46;3.63;;;1.38;;
75048;SDS011;63803;53.120;8.764;2023-01-10T12:04:18;4.60;;;1.50;;
75048;SDS011;63803;53.120;8.764;2023-01-10T12:06:49;6.00;;;1.40;;
75048;SDS011;63803;53.120;8.764;2023-01-10T12:09:38;3.78;;;1.30;;
75048;SDS011;63803;53.120;8.764;2023-01-10T12:12:18;2.78;;;1.35;;
75048;SDS011;63803;53.120;8.764;2023-01-10T12:14:53;5.40;;;1.55;;
75048;SDS011;63803;53.120;8.764;2023-01-10T12:17:31;3.92;;;1.60;;
75048;SDS011;63803;53.120;8.764;2023-01-10T12:20:00;9.93;;;1.60;;
75048;SDS011;63803;53.120;8.764;2023-01-10T12:22:29;5.63;;;1.50;;
75048;SDS011;63803;53.120;8.764;2023-01-10T12:25:00;4.15;;;1.55;;
75048;SDS011;63803;53.120;8.764;2023-01-10T12:27:31;3.35;;;1.30;;
75048;SDS011;63803;53.120;8.764;2023-01-10T12:30:00;2.90;;;1.40;;
75048;SDS011;63803;53.120;8.764;2023-01-10T12:32:50;3.42;;;1.27;;
75048;SDS011;63803;53.120;8.764;2023-01-10T12:35:41;5.68;;;1.50;;
75048;SDS011;63803;53.120;8.764;2023-01-10T12:40:44;3.03;;;1.20;;
75048;SDS011;63803;53.120;8.764;2023-01-10T12:43:19;4.78;;;1.55;;
75048;SDS011;63803;53.120;8.764;2023-01-10T12:46:09;6.22;;;1.38;;
75048;SDS011;63803;53.120;8.764;2023-01-10T12:51:57;3.92;;;1.48;;
75048;SDS011;63803;53.120;8.764;2023-01-10T12:54:28;3.30;;;1.23;;
75048;SDS011;63803;53.120;8.764;2023-01-10T12:56:57;7.50;;;1.30;;
75048;SDS011;63803;53.120;8.764;2023-01-10T13:02:02;5.53;;;1.40;;
75048;SDS011;63803;53.120;8.764;2023-01-10T13:04:31;2.95;;;1.20;;
75048;SDS011;63803;53.120;8.764;2023-01-10T13:07:01;4.28;;;1.30;;
75048;SDS011;63803;53.120;8.764;2023-01-10T13:09:28;7.15;;;1.77;;
75048;SDS011;63803;53.120;8.764;2023-01-10T13:12:17;4.82;;;1.50;;
75048;SDS011;63803;53.120;8.764;2023-01-10T13:14:56;4.82;;;1.67;;
75048;SDS011;63803;53.120;8.764;2023-01-10T13:22:45;3.55;;;1.25;;
75048;SDS011;63803;53.120;8.764;2023-01-10T13:28:03;2.35;;;1.23;;
75048;SDS011;63803;53.120;8.764;2023-01-10T13:30:35;5.22;;;1.40;;
75048;SDS011;63803;53.120;8.764;2023-01-10T13:33:06;4.72;;;1.50;;
75048;SDS011;63803;53.120;8.764;2023-01-10T13:35:37;5.30;;;1.50;;
75048;SDS011;63803;53.120;8.764;2023-01-10T13:38:05;6.10;;;1.70;;
75048;SDS011;63803;53.120;8.764;2023-01-10T13:40:40;3.47;;;1.50;;
75048;SDS011;63803;53.120;8.764;2023-01-10T13:51:18;7.75;;;1.30;;
75048;SDS011;63803;53.120;8.764;2023-01-10T14:02:15;4.22;;;1.60;;
75048;SDS011;63803;53.120;8.764;2023-01-10T14:04:59;4.83;;;1.53;;
75048;SDS011;63803;53.120;8.764;2023-01-10T14:07:32;4.43;;;1.60;;
75048;SDS011;63803;53.120;8.764;2023-01-10T14:10:26;4.88;;;1.60;;
75048;SDS011;63803;53.120;8.764;2023-01-10T14:17:54;4.22;;;1.85;;
75048;SDS011;63803;53.120;8.764;2023-01-10T14:20:30;5.22;;;1.75;;
75048;SDS011;63803;53.120;8.764;2023-01-10T14:23:00;4.45;;;1.80;;
75048;SDS011;63803;53.120;8.764;2023-01-10T14:25:51;4.45;;;1.63;;
75048;SDS011;63803;53.120;8.764;2023-01-10T14:28:22;3.88;;;1.40;;
75048;SDS011;63803;53.120;8.764;2023-01-10T14:33:34;7.32;;;1.83;;
75048;SDS011;63803;53.120;8.764;2023-01-10T14:36:02;5.53;;;1.98;;
75048;SDS011;63803;53.120;8.764;2023-01-10T14:38:38;2.95;;;1.40;;
75048;SDS011;63803;53.120;8.764;2023-01-10T14:41:06;8.05;;;1.67;;
75048;SDS011;63803;53.120;8.764;2023-01-10T14:44:00;3.90;;;1.42;;
75048;SDS011;63803;53.120;8.764;2023-01-10T14:47:04;2.97;;;1.48;;
75048;SDS011;63803;53.120;8.764;2023-01-10T14:49:33;8.02;;;2.53;;
75048;SDS011;63803;53.120;8.764;2023-01-10T14:52:20;8.23;;;2.10;;
75048;SDS011;63803;53.120;8.764;2023-01-10T14:55:03;5.63;;;1.55;;
75048;SDS011;63803;53.120;8.764;2023-01-10T14:57:34;5.85;;;1.60;;
75048;SDS011;63803;53.120;8.764;2023-01-10T15:00:07;5.63;;;1.52;;
75048;SDS011;63803;53.120;8.764;2023-01-10T15:02:42;2.58;;;1.30;;
75048;SDS011;63803;53.120;8.764;2023-01-10T15:05:25;4.63;;;1.55;;
75048;SDS011;63803;53.120;8.764;2023-01-10T15:07:54;5.47;;;2.05;;
75048;SDS011;63803;53.120;8.764;2023-01-10T15:10:39;5.63;;;1.70;;
75048;SDS011;63803;53.120;8.764;2023-01-10T15:13:07;5.47;;;1.67;;
75048;SDS011;63803;53.120;8.764;2023-01-10T15:15:36;3.50;;;1.48;;
75048;SDS011;63803;53.120;8.764;2023-01-10T15:19:03;4.53;;;1.70;;
75048;SDS011;63803;53.120;8.764;2023-01-10T15:21:03;3.80;;;1.65;;
75048;SDS011;63803;53.120;8.764;2023-01-10T15:23:40;8.63;;;1.80;;
75048;SDS011;63803;53.120;8.764;2023-01-10T15:29:11;5.20;;;1.58;;
75048;SDS011;63803;53.120;8.764;2023-01-10T15:31:43;3.75;;;1.70;;
75048;SDS011;63803;53.120;8.764;2023-01-10T15:34:14;5.60;;;1.80;;
75048;SDS011;63803;53.120;8.764;2023-01-10T15:36:49;10.48;;;2.00;;
75048;SDS011;63803;53.120;8.764;2023-01-10T15:39:19;3.88;;;1.40;;
75048;SDS011;63803;53.120;8.764;2023-01-10T15:41:47;4.10;;;1.30;;
75048;SDS011;63803;53.120;8.764;2023-01-10T15:44:49;5.80;;;1.80;;
75048;SDS011;63803;53.120;8.764;2023-01-10T15:49:57;9.73;;;2.15;;
75048;SDS011;63803;53.120;8.764;2023-01-10T15:52:23;10.05;;;2.20;;
75048;SDS011;63803;53.120;8.764;2023-01-10T15:54:49;6.45;;;2.08;;
75048;SDS011;63803;53.120;8.764;2023-01-10T15:57:23;7.00;;;2.03;;
75048;SDS011;63803;53.120;8.764;2023-01-10T15:59:54;4.50;;;2.10;;
75048;SDS011;63803;53.120;8.764;2023-01-10T16:02:29;5.72;;;1.88;;
75048;SDS011;63803;53.120;8.764;2023-01-10T16:04:57;5.63;;;2.15;;
75048;SDS011;63803;53.120;8.764;2023-01-10T16:07:40;5.18;;;1.58;;
75048;SDS011;63803;53.120;8.764;2023-01-10T16:10:24;5.68;;;1.67;;
75048;SDS011;63803;53.120;8.764;2023-01-10T16:12:51;5.65;;;2.05;;
75048;SDS011;63803;53.120;8.764;2023-01-10T16:15:39;4.78;;;1.60;;
75048;SDS011;63803;53.120;8.764;2023-01-10T16:18:08;8.13;;;1.77;;
75048;SDS011;63803;53.120;8.764;2023-01-10T16:20:35;12.07;;;2.08;;
75048;SDS011;63803;53.120;8.764;2023-01-10T16:23:03;5.10;;;1.92;;
75048;SDS011;63803;53.120;8.764;2023-01-10T16:25:34;7.50;;;1.80;;
75048;SDS011;63803;53.120;8.764;2023-01-10T16:28:04;5.78;;;1.80;;
75048;SDS011;63803;53.120;8.764;2023-01-10T16:30:31;4.32;;;1.75;;
75048;SDS011;63803;53.120;8.764;2023-01-10T16:32:59;5.45;;;1.90;;
75048;SDS011;63803;53.120;8.764;2023-01-10T16:35:33;6.28;;;2.13;;
75048;SDS011;63803;53.120;8.764;2023-01-10T16:37:59;6.88;;;1.90;;
75048;SDS011;63803;53.120;8.764;2023-01-10T16:40:27;6.10;;;2.17;;
75048;SDS011;63803;53.120;8.764;2023-01-10T16:42:57;9.55;;;2.15;;
75048;SDS011;63803;53.120;8.764;2023-01-10T16:45:51;4.75;;;1.95;;
75048;SDS011;63803;53.120;8.764;2023-01-10T16:48:25;6.35;;;2.15;;
75048;SDS011;63803;53.120;8.764;2023-01-10T16:50:55;7.03;;;2.10;;
75048;SDS011;63803;53.120;8.764;2023-01-10T16:53:30;8.23;;;2.30;;
75048;SDS011;63803;53.120;8.764;2023-01-10T16:55:56;8.27;;;2.20;;
75048;SDS011;63803;53.120;8.764;2023-01-10T16:58:22;5.75;;;1.88;;
75048;SDS011;63803;53.120;8.764;2023-01-10T17:00:49;5.65;;;2.15;;
75048;SDS011;63803;53.120;8.764;2023-01-10T17:03:20;5.85;;;2.08;;
75048;SDS011;63803;53.120;8.764;2023-01-10T17:05:47;7.60;;;1.90;;
75048;SDS011;63803;53.120;8.764;2023-01-10T17:08:15;5.10;;;1.98;;
75048;SDS011;63803;53.120;8.764;2023-01-10T17:10:46;5.72;;;1.83;;
75048;SDS011;63803;53.120;8.764;2023-01-10T17:15:47;13.52;;;2.25;;
75048;SDS011;63803;53.120;8.764;2023-01-10T17:18:13;9.07;;;2.15;;
75048;SDS011;63803;53.120;8.764;2023-01-10T17:20:39;5.53;;;1.77;;
75048;SDS011;63803;53.120;8.764;2023-01-10T17:23:05;6.88;;;1.80;;
75048;SDS011;63803;53.120;8.764;2023-01-10T17:25:33;6.35;;;2.15;;
75048;SDS011;63803;53.120;8.764;2023-01-10T17:27:59;7.85;;;2.20;;
75048;SDS011;63803;53.120;8.764;2023-01-10T17:30:25;4.00;;;1.85;;
75048;SDS011;63803;53.120;8.764;2023-01-10T17:32:51;6.25;;;2.17;;